Avery, Arkansas
Current Conditions -  °F | °C
As of 9:53 AM on Monday 24 Nov 2014 (Local Time) from KLLQ Reporting Station
Clear Clear  
Wind Chill: 53°   Ceiling: Unl
Heat Index: 53°   Visibility: 10mi
Dew Point: 34°   Wind: 14mph
Humidity: 48%   Direction: 300°WNW
Pressure: 29.94"   Gusts: 20mph
Location:  33.9283°N, 91.468°W
Report Text: KLLQ 241553Z AUTO 30012G17KT 10SM CLR 12/01 A2994 RMK AO2 SLP138 T01170011
Loading
Personal Weather Stations






























Interactive Weather Map New forecast layout! Learn more

10-Day Weather Forecast

Advertisements
Track Severe Weather on mobile